Time;durP1;ratioP1;P1;durP2;ratioP2;P2;SDS_P1;SDS_P2;PMS_P1;PMS_P2;Temp;Humidity;BMP_temperature;BMP_pressure;BME280_temperature;BME280_humidity;BME280_pressure;Samples;Min_cycle;Max_cycle;Signal;HPM_P1;HPM_P2
2024/02/15 00:00:34;;;;;;;5.77;2.27;;;;;;;;;;6233531;23;20521;-86
2024/02/15 00:03:15;;;;;;;4.67;2.20;;;;;;;;;;6217035;23;20499;-84
2024/02/15 00:05:49;;;;;;;3.10;2.47;;;;;;;;;;6216954;23;20409;-86
2024/02/15 00:08:26;;;;;;;3.17;2.30;;;;;;;;;;6218694;23;20439;-86
2024/02/15 00:11:10;;;;;;;2.57;2.13;;;;;;;;;;6217061;23;20464;-85
2024/02/15 00:13:52;;;;;;;2.80;2.20;;;;;;;;;;6213646;23;20429;-85
2024/02/15 00:16:27;;;;;;;4.30;2.17;;;;;;;;;;6214899;23;20955;-85
2024/02/15 00:19:29;;;;;;;3.30;2.50;;;;;;;;;;6215771;23;20872;-84
2024/02/15 00:22:11;;;;;;;2.83;2.50;;;;;;;;;;6214510;23;20437;-85
2024/02/15 00:24:46;;;;;;;3.77;2.97;;;;;;;;;;6214267;23;20504;-84
2024/02/15 00:27:21;;;;;;;3.30;2.50;;;;;;;;;;6214320;23;20417;-85
2024/02/15 00:30:00;;;;;;;3.37;2.47;;;;;;;;;;6213760;23;20464;-86
2024/02/15 00:32:36;;;;;;;3.73;2.77;;;;;;;;;;6217901;23;20420;-86
2024/02/15 00:35:09;;;;;;;3.00;2.80;;;;;;;;;;6246845;23;20790;-84
2024/02/15 00:37:39;;;;;;;3.70;2.30;;;;;;;;;;6233162;23;20415;-87
2024/02/15 00:40:15;;;;;;;4.63;3.07;;;;;;;;;;6230244;22;20499;-84
2024/02/15 00:42:49;;;;;;;3.13;2.83;;;;;;;;;;6220603;23;20406;-86
2024/02/15 00:45:22;;;;;;;5.23;2.70;;;;;;;;;;6236135;23;20467;-85
2024/02/15 00:48:06;;;;;;;2.80;2.60;;;;;;;;;;6265027;22;20405;-86
2024/02/15 00:50:37;;;;;;;2.97;2.67;;;;;;;;;;6259008;22;20888;-83
2024/02/15 00:53:22;;;;;;;4.07;3.20;;;;;;;;;;6244608;23;20674;-84
2024/02/15 00:55:52;;;;;;;3.83;2.43;;;;;;;;;;6243278;23;20466;-84
2024/02/15 00:58:21;;;;;;;3.40;2.20;;;;;;;;;;6245319;23;20420;-86
2024/02/15 01:00:54;;;;;;;2.50;2.10;;;;;;;;;;6246649;22;20441;-85
2024/02/15 01:03:24;;;;;;;4.50;3.60;;;;;;;;;;6219737;23;20404;-84
2024/02/15 01:05:57;;;;;;;3.07;1.83;;;;;;;;;;6220864;23;20515;-85
2024/02/15 01:08:30;;;;;;;2.97;2.77;;;;;;;;;;6259430;23;20389;-85
2024/02/15 01:11:03;;;;;;;2.50;2.30;;;;;;;;;;6239180;23;20436;-86
2024/02/15 01:13:36;;;;;;;5.73;2.23;;;;;;;;;;6236390;22;20457;-86
2024/02/15 01:16:05;;;;;;;4.33;2.93;;;;;;;;;;6249170;22;20413;-87
2024/02/15 01:18:35;;;;;;;3.10;2.80;;;;;;;;;;6217813;23;20423;-87
2024/02/15 01:21:11;;;;;;;3.20;2.90;;;;;;;;;;6217064;23;21422;-85
2024/02/15 01:23:38;;;;;;;3.90;3.10;;;;;;;;;;6215885;23;20922;-85
2024/02/15 01:26:15;;;;;;;5.37;2.40;;;;;;;;;;6219890;23;20393;-85
2024/02/15 01:28:50;;;;;;;2.87;2.53;;;;;;;;;;6216842;23;20441;-86
2024/02/15 01:31:20;;;;;;;3.70;2.90;;;;;;;;;;6216317;23;20475;-85
2024/02/15 01:33:59;;;;;;;3.67;2.60;;;;;;;;;;6215484;23;20388;-84
2024/02/15 01:36:28;;;;;;;2.83;2.50;;;;;;;;;;6215878;23;20474;-85
2024/02/15 01:39:01;;;;;;;5.40;2.73;;;;;;;;;;6216277;23;20405;-85
2024/02/15 01:41:32;;;;;;;3.40;2.70;;;;;;;;;;6240892;22;20450;-85
2024/02/15 01:44:00;;;;;;;3.17;2.60;;;;;;;;;;6214781;23;20459;-84
2024/02/15 01:46:33;;;;;;;5.63;3.43;;;;;;;;;;6216067;23;20428;-86
2024/02/15 01:49:00;;;;;;;3.13;2.67;;;;;;;;;;6213974;23;20381;-85
2024/02/15 01:51:35;;;;;;;2.77;2.53;;;;;;;;;;6215465;23;20460;-85
2024/02/15 01:54:05;;;;;;;3.53;3.23;;;;;;;;;;6239177;23;20420;-85
2024/02/15 01:56:45;;;;;;;5.60;2.90;;;;;;;;;;6239965;23;20404;-83
2024/02/15 01:59:21;;;;;;;6.53;3.77;;;;;;;;;;6213319;23;20489;-85
2024/02/15 02:02:01;;;;;;;3.23;2.73;;;;;;;;;;6239534;22;20529;-85
2024/02/15 02:04:40;;;;;;;2.97;2.67;;;;;;;;;;6210837;23;20405;-85
2024/02/15 02:07:15;;;;;;;3.90;2.50;;;;;;;;;;6211661;23;20400;-86
2024/02/15 02:09:52;;;;;;;7.10;3.23;;;;;;;;;;6212779;23;20479;-86
2024/02/15 02:12:22;;;;;;;2.20;1.90;;;;;;;;;;6237713;23;20428;-85
2024/02/15 02:14:52;;;;;;;3.30;1.77;;;;;;;;;;6212247;23;20411;-87
2024/02/15 02:17:27;;;;;;;2.60;1.73;;;;;;;;;;6209680;23;20417;-85
2024/02/15 02:20:00;;;;;;;2.80;1.80;;;;;;;;;;6237612;22;20385;-85
2024/02/15 02:22:33;;;;;;;2.10;1.90;;;;;;;;;;6209276;23;20415;-86
2024/02/15 02:25:03;;;;;;;3.37;2.07;;;;;;;;;;6216804;23;20396;-86
2024/02/15 02:27:37;;;;;;;2.50;2.30;;;;;;;;;;6259611;22;20385;-86
2024/02/15 02:30:18;;;;;;;2.47;2.27;;;;;;;;;;6235858;22;20472;-85
2024/02/15 02:32:51;;;;;;;3.03;2.50;;;;;;;;;;6221235;23;20545;-85
2024/02/15 02:35:32;;;;;;;3.57;2.43;;;;;;;;;;6222359;23;20527;-84
2024/02/15 02:38:06;;;;;;;2.37;2.10;;;;;;;;;;6247438;23;20618;-85
2024/02/15 02:40:54;;;;;;;2.50;2.30;;;;;;;;;;6247291;22;20448;-84
2024/02/15 02:43:26;;;;;;;6.80;2.83;;;;;;;;;;6244932;23;20471;-85
2024/02/15 02:45:57;;;;;;;2.40;2.17;;;;;;;;;;6221265;23;20446;-85
2024/02/15 02:48:24;;;;;;;3.43;2.00;;;;;;;;;;6225969;23;20756;-85
2024/02/15 02:51:01;;;;;;;2.40;2.30;;;;;;;;;;6251252;22;20427;-83
2024/02/15 02:53:38;;;;;;;2.40;2.20;;;;;;;;;;6240131;23;20454;-86
2024/02/15 02:56:12;;;;;;;4.80;2.67;;;;;;;;;;6242210;23;20428;-85
2024/02/15 02:58:42;;;;;;;3.20;2.40;;;;;;;;;;6239975;23;20564;-84
2024/02/15 03:01:13;;;;;;;3.83;2.10;;;;;;;;;;6237797;22;20515;-83
2024/02/15 03:03:47;;;;;;;3.20;2.00;;;;;;;;;;6239731;23;20404;-85
2024/02/15 03:06:16;;;;;;;4.83;2.70;;;;;;;;;;6239694;23;20419;-84
2024/02/15 03:08:57;;;;;;;3.10;1.80;;;;;;;;;;6236410;23;20408;-85
2024/02/15 03:11:28;;;;;;;3.80;2.30;;;;;;;;;;6239493;22;20562;-84
2024/02/15 03:14:12;;;;;;;2.13;1.93;;;;;;;;;;6238910;23;20466;-85
2024/02/15 03:16:44;;;;;;;3.17;2.40;;;;;;;;;;6250562;22;20384;-85
2024/02/15 03:19:12;;;;;;;2.57;2.37;;;;;;;;;;6264685;22;20397;-87
2024/02/15 03:21:46;;;;;;;3.00;1.90;;;;;;;;;;6264300;22;20447;-85
2024/02/15 03:24:13;;;;;;;2.00;1.80;;;;;;;;;;6264892;22;20381;-86
2024/02/15 03:26:49;;;;;;;3.50;2.23;;;;;;;;;;6262718;22;20424;-86
2024/02/15 03:29:20;;;;;;;2.90;2.30;;;;;;;;;;6259662;22;20421;-86
2024/02/15 03:31:49;;;;;;;4.23;1.93;;;;;;;;;;6271827;22;20462;-85
2024/02/15 03:34:24;;;;;;;5.03;2.20;;;;;;;;;;6268205;22;20475;-87
2024/02/15 03:37:03;;;;;;;3.00;2.50;;;;;;;;;;6295911;22;20466;-84
2024/02/15 03:39:34;;;;;;;6.50;2.63;;;;;;;;;;6271036;22;20430;-86
2024/02/15 03:42:09;;;;;;;3.30;2.40;;;;;;;;;;6270154;22;20431;-86
2024/02/15 03:44:41;;;;;;;2.37;2.10;;;;;;;;;;6262942;22;20437;-85
2024/02/15 03:47:08;;;;;;;3.90;2.57;;;;;;;;;;6273243;22;20418;-83
2024/02/15 03:49:38;;;;;;;2.70;2.07;;;;;;;;;;6244398;22;20498;-84
2024/02/15 03:52:08;;;;;;;2.87;2.13;;;;;;;;;;6242555;22;20427;-82
2024/02/15 03:54:39;;;;;;;2.83;2.30;;;;;;;;;;6242275;22;20419;-84
2024/02/15 03:57:12;;;;;;;2.23;1.93;;;;;;;;;;6241749;22;20431;-84
2024/02/15 03:59:40;;;;;;;2.27;2.17;;;;;;;;;;6241382;22;20411;-84
2024/02/15 04:02:14;;;;;;;3.77;2.30;;;;;;;;;;6241595;22;20553;-85
2024/02/15 04:04:43;;;;;;;3.20;2.13;;;;;;;;;;6242483;22;20400;-84
2024/02/15 04:07:17;;;;;;;6.17;2.53;;;;;;;;;;6268833;22;20574;-83
2024/02/15 04:09:51;;;;;;;1.97;1.87;;;;;;;;;;6245346;22;20392;-85
2024/02/15 04:12:24;;;;;;;2.13;1.83;;;;;;;;;;6271128;22;20400;-85
2024/02/15 04:14:59;;;;;;;4.00;2.03;;;;;;;;;;6248512;22;20471;-83
2024/02/15 04:17:32;;;;;;;3.67;2.50;;;;;;;;;;6250158;22;20412;-86
2024/02/15 04:20:12;;;;;;;4.87;2.47;;;;;;;;;;6253397;22;20383;-85
2024/02/15 04:22:43;;;;;;;2.23;2.03;;;;;;;;;;6251033;22;20408;-85
2024/02/15 04:25:17;;;;;;;2.30;1.70;;;;;;;;;;6253224;22;20447;-86
2024/02/15 04:28:03;;;;;;;2.17;1.87;;;;;;;;;;6250144;22;20475;-86
2024/02/15 04:30:34;;;;;;;2.90;2.10;;;;;;;;;;6254218;22;20428;-86
2024/02/15 04:33:09;;;;;;;2.93;2.03;;;;;;;;;;6254329;22;20419;-84
2024/02/15 04:35:36;;;;;;;3.80;2.00;;;;;;;;;;6254526;22;20440;-85
2024/02/15 04:38:13;;;;;;;2.53;1.80;;;;;;;;;;6254263;22;20430;-86
2024/02/15 04:40:54;;;;;;;3.27;2.00;;;;;;;;;;6252353;22;20467;-86
2024/02/15 04:43:33;;;;;;;3.30;2.20;;;;;;;;;;6283807;22;20396;-86
2024/02/15 04:46:06;;;;;;;2.50;2.30;;;;;;;;;;6269781;22;20476;-87
2024/02/15 04:48:34;;;;;;;2.33;1.93;;;;;;;;;;6266840;22;20399;-87
2024/02/15 04:51:07;;;;;;;2.37;1.90;;;;;;;;;;6260031;22;20519;-86
2024/02/15 04:53:43;;;;;;;2.87;2.47;;;;;;;;;;6261325;22;20426;-87
2024/02/15 04:56:13;;;;;;;3.67;2.40;;;;;;;;;;6248943;22;20967;-85
2024/02/15 04:58:54;;;;;;;3.10;2.07;;;;;;;;;;6273882;22;20427;-85
2024/02/15 05:01:39;;;;;;;2.40;2.20;;;;;;;;;;6273553;22;21101;-87
2024/02/15 05:04:10;;;;;;;4.33;2.50;;;;;;;;;;6247917;22;20396;-86
2024/02/15 05:06:52;;;;;;;2.00;1.73;;;;;;;;;;6249592;22;21249;-85
2024/02/15 05:09:22;;;;;;;3.00;1.97;;;;;;;;;;6272928;22;20525;-86
2024/02/15 05:11:52;;;;;;;2.80;2.03;;;;;;;;;;6249179;22;20439;-86
2024/02/15 05:14:24;;;;;;;3.10;2.20;;;;;;;;;;6274512;22;20411;-87
2024/02/15 05:20:10;;;;;;;5.23;1.90;;;;;;;;;;6192428;22;20387;-86
2024/02/15 05:22:43;;;;;;;2.87;2.17;;;;;;;;;;6247613;22;20451;-85
2024/02/15 05:25:22;;;;;;;2.37;2.17;;;;;;;;;;6250971;22;20412;-84
2024/02/15 05:27:53;;;;;;;3.90;2.80;;;;;;;;;;6248012;22;20455;-86
2024/02/15 05:30:23;;;;;;;3.00;2.00;;;;;;;;;;6251082;22;20434;-83
2024/02/15 05:32:53;;;;;;;2.53;2.00;;;;;;;;;;6250488;22;20911;-86
2024/02/15 05:35:25;;;;;;;5.60;2.50;;;;;;;;;;6282004;22;20408;-85
2024/02/15 05:37:56;;;;;;;3.00;2.70;;;;;;;;;;6257225;22;20412;-84
2024/02/15 05:40:28;;;;;;;3.80;2.23;;;;;;;;;;6255367;22;20485;-84
2024/02/15 05:43:02;;;;;;;2.33;2.13;;;;;;;;;;6255177;22;20439;-85
2024/02/15 05:45:32;;;;;;;3.30;2.67;;;;;;;;;;6255650;22;20388;-84
2024/02/15 05:48:06;;;;;;;3.40;2.00;;;;;;;;;;6274422;22;20469;-84
2024/02/15 05:50:38;;;;;;;6.27;2.40;;;;;;;;;;6248613;22;20423;-85
2024/02/15 05:53:19;;;;;;;4.77;2.57;;;;;;;;;;6273744;22;20537;-86
2024/02/15 05:56:04;;;;;;;2.13;1.93;;;;;;;;;;6250017;22;20411;-86
2024/02/15 05:58:34;;;;;;;5.77;2.13;;;;;;;;;;6248844;22;20416;-85
2024/02/15 06:01:20;;;;;;;8.03;2.30;;;;;;;;;;6251175;22;20451;-87
2024/02/15 06:03:55;;;;;;;2.80;2.47;;;;;;;;;;6248418;22;20429;-85
2024/02/15 06:06:29;;;;;;;3.10;1.93;;;;;;;;;;6247938;22;20392;-85
2024/02/15 06:09:02;;;;;;;3.20;2.00;;;;;;;;;;6272020;22;20407;-85
2024/02/15 06:11:32;;;;;;;3.17;2.70;;;;;;;;;;6247315;22;20450;-86
2024/02/15 06:14:13;;;;;;;7.00;2.70;;;;;;;;;;6273041;22;21197;-85
2024/02/15 06:16:52;;;;;;;5.20;2.43;;;;;;;;;;6246748;22;20901;-84
2024/02/15 06:19:32;;;;;;;2.47;2.27;;;;;;;;;;6248413;22;20403;-86
2024/02/15 06:22:16;;;;;;;5.90;2.53;;;;;;;;;;6275937;22;20448;-83
2024/02/15 06:24:53;;;;;;;3.97;2.30;;;;;;;;;;6249842;22;20411;-84
2024/02/15 06:27:24;;;;;;;4.03;2.10;;;;;;;;;;6248703;22;20925;-85
2024/02/15 06:41:37;;;;;;;3.40;2.23;;;;;;;;;;6294601;22;20526;-85
2024/02/15 06:44:07;;;;;;;4.93;2.50;;;;;;;;;;6269546;22;20388;-85
2024/02/15 06:46:46;;;;;;;3.90;2.20;;;;;;;;;;6296051;22;20407;-86
2024/02/15 06:49:24;;;;;;;2.83;2.10;;;;;;;;;;6266900;22;20392;-85
2024/02/15 06:52:02;;;;;;;3.87;2.37;;;;;;;;;;6263394;22;20446;-85
2024/02/15 06:54:49;;;;;;;6.90;2.40;;;;;;;;;;6259677;22;20415;-85
2024/02/15 06:57:21;;;;;;;4.40;2.30;;;;;;;;;;6258723;22;20407;-84
2024/02/15 06:59:57;;;;;;;3.73;2.97;;;;;;;;;;6280593;22;20426;-85
2024/02/15 07:02:27;;;;;;;4.00;2.77;;;;;;;;;;6251816;22;21183;-83
2024/02/15 07:04:57;;;;;;;6.37;2.57;;;;;;;;;;6257092;22;20404;-87
2024/02/15 07:07:25;;;;;;;5.33;2.30;;;;;;;;;;6264268;22;20575;-87
2024/02/15 07:10:05;;;;;;;5.60;2.87;;;;;;;;;;6267292;22;20396;-85
2024/02/15 07:12:41;;;;;;;2.30;2.10;;;;;;;;;;6268995;22;20389;-86
2024/02/15 07:15:17;;;;;;;3.53;2.13;;;;;;;;;;6272838;22;20430;-84
2024/02/15 07:17:58;;;;;;;3.00;2.43;;;;;;;;;;6273825;22;20420;-83
2024/02/15 07:20:31;;;;;;;6.30;2.50;;;;;;;;;;6297944;22;20431;-83
2024/02/15 07:23:15;;;;;;;6.10;2.60;;;;;;;;;;6265199;22;20443;-85
2024/02/15 07:28:34;;;;;;;3.60;2.50;;;;;;;;;;6296188;22;20434;-84
2024/02/15 07:31:24;;;;;;;5.30;2.97;;;;;;;;;;6262608;22;20420;-83
2024/02/15 07:33:54;;;;;;;6.20;2.63;;;;;;;;;;6295276;22;20404;-85
2024/02/15 07:36:27;;;;;;;3.57;2.27;;;;;;;;;;6251087;22;21006;-84
2024/02/15 07:39:00;;;;;;;3.60;2.63;;;;;;;;;;6249662;22;20412;-85
2024/02/15 07:41:40;;;;;;;4.97;2.43;;;;;;;;;;6278085;22;20434;-83
2024/02/15 07:44:18;;;;;;;6.67;2.53;;;;;;;;;;6275872;22;20426;-84
2024/02/15 07:47:08;;;;;;;2.93;2.60;;;;;;;;;;6276122;22;20406;-86
2024/02/15 07:49:38;;;;;;;8.40;3.30;;;;;;;;;;6250489;22;20420;-85
2024/02/15 07:52:13;;;;;;;3.50;2.33;;;;;;;;;;6253325;22;20428;-84
2024/02/15 07:54:54;;;;;;;5.80;2.90;;;;;;;;;;6277801;22;20530;-85
2024/02/15 07:57:26;;;;;;;6.00;2.40;;;;;;;;;;6252465;22;21202;-85
2024/02/15 08:00:10;;;;;;;4.30;2.80;;;;;;;;;;6252582;22;20400;-85
2024/02/15 08:02:44;;;;;;;4.37;2.90;;;;;;;;;;6251047;22;20447;-84
2024/02/15 08:05:17;;;;;;;4.63;2.73;;;;;;;;;;6252052;22;20396;-85
2024/02/15 08:07:50;;;;;;;3.43;2.80;;;;;;;;;;6250162;22;20423;-86
2024/02/15 08:10:28;;;;;;;6.17;3.33;;;;;;;;;;6277491;22;20424;-87
2024/02/15 08:12:59;;;;;;;4.23;2.70;;;;;;;;;;6251025;22;20976;-85
2024/02/15 08:15:33;;;;;;;6.60;3.40;;;;;;;;;;6252727;22;20426;-84
2024/02/15 08:18:09;;;;;;;2.73;2.40;;;;;;;;;;6252530;22;20761;-86
2024/02/15 08:20:36;;;;;;;5.10;2.60;;;;;;;;;;6255921;22;20479;-84
2024/02/15 08:23:07;;;;;;;7.80;3.50;;;;;;;;;;6267252;22;20599;-84
2024/02/15 08:25:47;;;;;;;5.53;3.07;;;;;;;;;;6271583;22;20443;-84
2024/02/15 08:28:20;;;;;;;7.33;2.77;;;;;;;;;;6290059;22;20411;-84
2024/02/15 08:31:03;;;;;;;9.13;4.03;;;;;;;;;;6253486;22;20603;-85
2024/02/15 08:33:33;;;;;;;3.20;2.90;;;;;;;;;;6249836;22;20407;-86
2024/02/15 08:36:13;;;;;;;4.10;2.67;;;;;;;;;;6252966;22;20420;-86
2024/02/15 08:38:46;;;;;;;4.47;2.63;;;;;;;;;;6254233;22;20403;-84
2024/02/15 08:41:20;;;;;;;3.70;2.80;;;;;;;;;;6257214;22;20671;-85
2024/02/15 08:43:51;;;;;;;2.70;2.50;;;;;;;;;;6256071;22;20811;-85
2024/02/15 08:46:18;;;;;;;3.83;2.97;;;;;;;;;;6253158;22;20412;-84
2024/02/15 08:48:48;;;;;;;4.13;2.93;;;;;;;;;;6251973;22;20395;-85
2024/02/15 08:51:20;;;;;;;6.77;3.50;;;;;;;;;;6249785;22;20488;-83
2024/02/15 08:53:53;;;;;;;8.53;3.93;;;;;;;;;;6251429;22;20439;-87
2024/02/15 08:56:24;;;;;;;4.50;2.90;;;;;;;;;;6275424;22;20457;-83
2024/02/15 08:59:00;;;;;;;3.77;2.67;;;;;;;;;;6253007;22;20418;-84
2024/02/15 09:01:46;;;;;;;5.23;2.53;;;;;;;;;;6249681;22;20436;-84
2024/02/15 09:04:13;;;;;;;5.50;3.40;;;;;;;;;;6274788;22;20416;-82
2024/02/15 09:06:42;;;;;;;3.30;2.50;;;;;;;;;;6278057;22;20608;-83
2024/02/15 09:09:20;;;;;;;4.83;2.50;;;;;;;;;;6278167;22;20518;-85
2024/02/15 09:11:47;;;;;;;3.67;2.50;;;;;;;;;;6278057;22;20462;-85
2024/02/15 09:14:15;;;;;;;5.20;3.30;;;;;;;;;;6278561;22;20515;-85
2024/02/15 09:16:42;;;;;;;5.37;2.67;;;;;;;;;;6252086;22;20646;-83
2024/02/15 09:19:09;;;;;;;3.00;2.63;;;;;;;;;;6252612;22;20496;-82
2024/02/15 09:21:37;;;;;;;4.67;2.03;;;;;;;;;;6252168;22;20573;-83
2024/02/15 09:24:07;;;;;;;3.57;2.50;;;;;;;;;;6280130;22;20395;-83
2024/02/15 09:26:36;;;;;;;4.63;2.47;;;;;;;;;;6256230;22;20488;-80
2024/02/15 09:29:03;;;;;;;3.00;2.67;;;;;;;;;;6292002;22;20450;-83
2024/02/15 09:31:35;;;;;;;4.47;2.80;;;;;;;;;;6264632;22;20491;-84
2024/02/15 09:34:06;;;;;;;2.97;2.63;;;;;;;;;;6275524;22;20515;-82
2024/02/15 09:36:39;;;;;;;3.60;1.97;;;;;;;;;;6272344;22;20434;-81
2024/02/15 09:39:06;;;;;;;5.83;2.20;;;;;;;;;;6248910;22;20404;-85
2024/02/15 09:41:34;;;;;;;6.53;2.30;;;;;;;;;;6249156;22;20436;-83
2024/02/15 09:44:03;;;;;;;7.07;2.37;;;;;;;;;;6247722;22;20408;-81
2024/02/15 09:46:31;;;;;;;2.90;1.93;;;;;;;;;;6250504;22;21142;-83
2024/02/15 09:49:03;;;;;;;3.40;2.20;;;;;;;;;;6275437;22;20392;-83
2024/02/15 09:51:33;;;;;;;4.13;2.33;;;;;;;;;;6275074;22;20424;-82
2024/02/15 09:54:01;;;;;;;2.20;1.93;;;;;;;;;;6274588;22;20750;-84
2024/02/15 09:56:28;;;;;;;2.70;2.13;;;;;;;;;;6246110;22;20424;-83
2024/02/15 09:58:56;;;;;;;2.17;1.97;;;;;;;;;;6245088;22;20414;-82
2024/02/15 10:01:23;;;;;;;6.77;2.07;;;;;;;;;;6247023;22;20495;-84
2024/02/15 10:03:51;;;;;;;4.60;2.17;;;;;;;;;;6273867;22;20435;-84
2024/02/15 10:06:22;;;;;;;2.40;2.20;;;;;;;;;;6245701;22;20423;-86
2024/02/15 10:08:51;;;;;;;4.73;2.00;;;;;;;;;;6247174;22;20415;-84
2024/02/15 10:11:23;;;;;;;3.73;1.83;;;;;;;;;;6274936;22;20586;-84
2024/02/15 10:13:51;;;;;;;3.07;1.67;;;;;;;;;;6273589;22;20473;-86
2024/02/15 10:16:25;;;;;;;3.67;2.07;;;;;;;;;;6248996;22;20519;-85
2024/02/15 10:18:53;;;;;;;2.77;2.00;;;;;;;;;;6246956;22;20419;-86
2024/02/15 10:21:29;;;;;;;2.63;1.83;;;;;;;;;;6272308;22;20434;-86
2024/02/15 10:24:05;;;;;;;3.67;1.67;;;;;;;;;;6274139;22;20443;-86
2024/02/15 10:26:38;;;;;;;4.60;1.97;;;;;;;;;;6244286;22;20438;-86
2024/02/15 10:29:16;;;;;;;5.20;1.70;;;;;;;;;;6249396;22;20845;-86
2024/02/15 10:32:00;;;;;;;3.63;1.70;;;;;;;;;;6273738;22;21107;-85
2024/02/15 10:34:30;;;;;;;5.30;1.80;;;;;;;;;;6246743;22;20431;-84
2024/02/15 10:37:20;;;;;;;4.60;2.37;;;;;;;;;;6247386;22;20412;-87
2024/02/15 10:40:06;;;;;;;4.17;1.90;;;;;;;;;;6243852;22;20387;-85
2024/02/15 10:42:37;;;;;;;2.63;1.97;;;;;;;;;;6243877;22;20463;-84
2024/02/15 10:45:17;;;;;;;4.30;1.90;;;;;;;;;;6247747;22;20546;-83
2024/02/15 10:47:48;;;;;;;7.50;1.97;;;;;;;;;;6243205;22;20415;-84
2024/02/15 10:50:22;;;;;;;4.83;2.10;;;;;;;;;;6270517;22;20489;-84
2024/02/15 10:53:04;;;;;;;3.33;1.70;;;;;;;;;;6269962;22;20784;-83
2024/02/15 10:55:57;;;;;;;2.23;2.03;;;;;;;;;;6243987;22;20470;-86
2024/02/15 10:58:29;;;;;;;4.03;2.00;;;;;;;;;;6242329;22;20419;-85
2024/02/15 11:01:24;;;;;;;3.00;2.20;;;;;;;;;;6248211;22;20430;-87
2024/02/15 11:04:08;;;;;;;3.80;1.70;;;;;;;;;;6243246;22;20636;-86
2024/02/15 11:06:53;;;;;;;1.90;1.70;;;;;;;;;;6241107;22;20434;-85
2024/02/15 11:09:32;;;;;;;2.70;2.20;;;;;;;;;;6240137;22;20426;-85
2024/02/15 11:12:14;;;;;;;3.20;1.90;;;;;;;;;;6244090;22;20438;-85
2024/02/15 11:14:53;;;;;;;2.57;2.33;;;;;;;;;;6249245;22;20407;-87
2024/02/15 11:17:56;;;;;;;1.90;1.60;;;;;;;;;;6265829;22;20405;-87
2024/02/15 11:20:59;;;;;;;2.50;1.93;;;;;;;;;;6289861;22;20483;-86
2024/02/15 11:23:44;;;;;;;2.57;1.80;;;;;;;;;;6231157;22;20458;-85
2024/02/15 11:26:37;;;;;;;3.17;1.53;;;;;;;;;;6257443;22;20407;-86
2024/02/15 11:29:10;;;;;;;4.17;2.10;;;;;;;;;;6206056;22;20432;-87
2024/02/15 11:31:57;;;;;;;3.20;2.50;;;;;;;;;;6274875;22;20423;-84
2024/02/15 11:34:51;;;;;;;2.20;1.80;;;;;;;;;;6247512;22;20908;-87
2024/02/15 11:40:46;;;;;;;4.13;1.50;;;;;;;;;;6275258;22;20431;-86
2024/02/15 11:43:40;;;;;;;6.20;1.90;;;;;;;;;;6245892;22;20470;-88
2024/02/15 11:46:19;;;;;;;3.53;2.20;;;;;;;;;;6249033;22;20434;-86
2024/02/15 11:48:49;;;;;;;6.77;2.37;;;;;;;;;;6247506;22;20414;-85
2024/02/15 11:51:51;;;;;;;2.50;1.90;;;;;;;;;;6247162;22;20431;-85
2024/02/15 11:54:22;;;;;;;4.00;2.30;;;;;;;;;;6276157;22;20905;-85
2024/02/15 11:57:10;;;;;;;3.97;2.83;;;;;;;;;;6248780;22;20423;-85
2024/02/15 12:19:38;;;;;;;4.17;2.10;;;;;;;;;;6285140;22;20411;-86
2024/02/15 12:22:32;;;;;;;3.17;2.20;;;;;;;;;;6263702;22;20453;-85
2024/02/15 12:25:11;;;;;;;5.43;2.27;;;;;;;;;;6268447;22;20439;-85
2024/02/15 12:27:50;;;;;;;3.93;1.90;;;;;;;;;;6288053;22;20422;-86
2024/02/15 12:30:36;;;;;;;2.77;1.93;;;;;;;;;;6247720;22;20479;-86
2024/02/15 12:33:19;;;;;;;3.00;2.00;;;;;;;;;;6273141;22;20399;-84
2024/02/15 12:35:50;;;;;;;2.53;2.13;;;;;;;;;;6246486;22;20403;-86
2024/02/15 12:38:24;;;;;;;2.50;1.97;;;;;;;;;;6249236;22;20469;-85
2024/02/15 12:41:00;;;;;;;6.60;2.40;;;;;;;;;;6248658;22;20474;-85
2024/02/15 12:43:38;;;;;;;1.97;1.70;;;;;;;;;;6270200;22;20526;-85
2024/02/15 12:46:10;;;;;;;2.73;2.00;;;;;;;;;;6246682;22;20477;-85
2024/02/15 12:48:43;;;;;;;3.60;2.10;;;;;;;;;;6247570;22;20900;-85
2024/02/15 12:51:24;;;;;;;3.40;1.70;;;;;;;;;;6249915;22;20555;-84
2024/02/15 12:53:52;;;;;;;4.17;1.80;;;;;;;;;;6273968;22;20427;-85
2024/02/15 12:56:24;;;;;;;2.50;1.80;;;;;;;;;;6247811;22;20407;-85
2024/02/15 12:58:56;;;;;;;1.90;1.80;;;;;;;;;;6273757;22;20408;-86
2024/02/15 13:01:39;;;;;;;3.07;2.10;;;;;;;;;;6245591;22;20435;-85
2024/02/15 13:04:09;;;;;;;6.83;2.37;;;;;;;;;;6270790;22;20513;-86
2024/02/15 13:06:56;;;;;;;3.80;2.10;;;;;;;;;;6243909;22;20404;-82
2024/02/15 13:09:36;;;;;;;3.80;2.23;;;;;;;;;;6270006;22;20415;-84
2024/02/15 13:15:21;;;;;;;1.97;1.63;;;;;;;;;;6188904;22;20520;-87
2024/02/15 13:18:05;;;;;;;2.90;2.03;;;;;;;;;;6250402;22;20400;-84
2024/02/15 13:20:37;;;;;;;7.40;2.10;;;;;;;;;;6269326;22;20458;-85
2024/02/15 13:23:30;;;;;;;1.83;1.70;;;;;;;;;;6256768;22;20510;-85
2024/02/15 13:26:04;;;;;;;2.30;2.10;;;;;;;;;;6257576;22;20488;-86
2024/02/15 13:28:37;;;;;;;3.40;1.90;;;;;;;;;;6286636;22;20391;-88
2024/02/15 13:31:13;;;;;;;3.70;1.90;;;;;;;;;;6269461;22;20491;-85
2024/02/15 13:33:43;;;;;;;1.83;1.63;;;;;;;;;;6293555;22;20388;-85
2024/02/15 13:36:26;;;;;;;5.00;2.33;;;;;;;;;;6265412;22;20926;-86
2024/02/15 13:38:55;;;;;;;2.20;1.63;;;;;;;;;;6257712;22;20712;-86
2024/02/15 13:41:26;;;;;;;4.50;1.80;;;;;;;;;;6254655;22;20455;-87
2024/02/15 13:44:09;;;;;;;1.73;1.60;;;;;;;;;;6258368;22;20478;-84
2024/02/15 13:47:02;;;;;;;3.57;2.00;;;;;;;;;;6253555;22;20407;-85
2024/02/15 13:49:46;;;;;;;2.20;1.83;;;;;;;;;;6253970;22;20526;-86
2024/02/15 13:52:22;;;;;;;4.57;2.30;;;;;;;;;;6250360;22;20404;-87
2024/02/15 13:54:53;;;;;;;1.93;1.80;;;;;;;;;;6285231;22;20463;-86
2024/02/15 13:57:28;;;;;;;2.80;2.00;;;;;;;;;;6251486;22;20420;-86
2024/02/15 14:00:29;;;;;;;2.33;1.73;;;;;;;;;;6259394;22;20402;-86
2024/02/15 14:03:06;;;;;;;3.07;2.00;;;;;;;;;;6250796;22;20467;-86
2024/02/15 14:05:47;;;;;;;2.00;1.83;;;;;;;;;;6279493;22;20474;-82
2024/02/15 14:08:22;;;;;;;1.67;1.27;;;;;;;;;;6282025;22;20407;-87
2024/02/15 14:11:02;;;;;;;3.80;1.70;;;;;;;;;;6264681;22;20526;-87
2024/02/15 14:13:46;;;;;;;4.97;1.70;;;;;;;;;;6262784;22;20435;-84
2024/02/15 14:16:33;;;;;;;3.13;2.00;;;;;;;;;;6242001;22;20404;-85
2024/02/15 14:19:03;;;;;;;2.60;1.60;;;;;;;;;;6257660;22;20407;-87
2024/02/15 14:21:44;;;;;;;5.90;2.27;;;;;;;;;;6254152;22;20502;-87
2024/02/15 14:24:18;;;;;;;2.50;1.60;;;;;;;;;;6277112;22;20440;-84
2024/02/15 14:27:02;;;;;;;1.77;1.40;;;;;;;;;;6229036;22;20411;-85
2024/02/15 14:35:46;;;;;;;1.60;1.50;;;;;;;;;;6283785;22;20420;-86
2024/02/15 14:38:17;;;;;;;1.50;1.40;;;;;;;;;;6254512;22;20411;-86
2024/02/15 14:41:00;;;;;;;3.30;1.83;;;;;;;;;;6252925;22;20446;-86
2024/02/15 14:43:32;;;;;;;2.23;1.47;;;;;;;;;;6248259;22;20456;-85
2024/02/15 14:46:10;;;;;;;6.87;1.77;;;;;;;;;;6276386;22;20403;-85
2024/02/15 14:48:46;;;;;;;1.60;1.27;;;;;;;;;;6248277;22;20427;-86
2024/02/15 14:51:19;;;;;;;4.73;1.77;;;;;;;;;;6276199;22;20423;-87
2024/02/15 14:53:52;;;;;;;3.00;1.50;;;;;;;;;;6277359;22;20391;-87
2024/02/15 14:56:28;;;;;;;2.47;1.70;;;;;;;;;;6250959;22;20407;-85
2024/02/15 14:59:04;;;;;;;2.07;1.60;;;;;;;;;;6251110;22;20534;-87
2024/02/15 15:01:35;;;;;;;3.13;1.83;;;;;;;;;;6247835;22;20451;-87
2024/02/15 15:04:17;;;;;;;2.33;1.63;;;;;;;;;;6252289;22;20450;-85
2024/02/15 15:13:19;;;;;;;1.63;1.10;;;;;;;;;;6279406;22;20435;-84
2024/02/15 15:15:53;;;;;;;2.40;1.50;;;;;;;;;;6262651;22;20400;-84
2024/02/15 15:18:41;;;;;;;4.40;1.30;;;;;;;;;;6293053;22;20482;-84
2024/02/15 15:21:27;;;;;;;1.80;1.20;;;;;;;;;;6263167;22;20416;-84
2024/02/15 15:24:16;;;;;;;1.23;1.00;;;;;;;;;;6245265;22;20554;-86
2024/02/15 15:26:48;;;;;;;2.20;1.40;;;;;;;;;;6246617;22;20402;-85
2024/02/15 15:29:22;;;;;;;2.53;2.00;;;;;;;;;;6275978;22;20403;-85
2024/02/15 15:35:21;;;;;;;1.23;1.13;;;;;;;;;;6244625;22;20455;-88
2024/02/15 15:38:02;;;;;;;1.00;1.00;;;;;;;;;;6250243;22;20526;-84
2024/02/15 15:40:42;;;;;;;1.60;1.40;;;;;;;;;;6250723;22;20454;-86
2024/02/15 15:43:24;;;;;;;3.00;1.70;;;;;;;;;;6275673;22;20974;-87
2024/02/15 15:46:03;;;;;;;1.63;1.50;;;;;;;;;;6250801;22;20482;-84
2024/02/15 15:48:39;;;;;;;1.63;1.40;;;;;;;;;;6248256;22;20858;-85
2024/02/15 15:51:13;;;;;;;1.93;1.20;;;;;;;;;;6278459;22;20432;-84
2024/02/15 15:53:56;;;;;;;2.20;1.10;;;;;;;;;;6253701;22;20438;-85
2024/02/15 15:56:40;;;;;;;1.70;1.30;;;;;;;;;;6278791;22;20414;-87
2024/02/15 15:59:25;;;;;;;2.70;1.30;;;;;;;;;;6277124;22;20396;-86
2024/02/15 16:02:12;;;;;;;2.00;1.60;;;;;;;;;;6250116;22;20465;-86
2024/02/15 16:04:49;;;;;;;1.10;1.00;;;;;;;;;;6276745;22;20438;-86
2024/02/15 16:07:33;;;;;;;2.47;1.40;;;;;;;;;;6250890;22;20423;-85
2024/02/15 16:10:00;;;;;;;1.80;1.23;;;;;;;;;;6249761;22;20939;-86
2024/02/15 16:12:37;;;;;;;4.63;1.53;;;;;;;;;;6251093;22;20400;-86
2024/02/15 16:15:14;;;;;;;1.20;1.10;;;;;;;;;;6276580;22;20411;-87
2024/02/15 16:17:48;;;;;;;1.60;1.40;;;;;;;;;;6277499;22;20908;-87
2024/02/15 16:20:25;;;;;;;1.33;1.20;;;;;;;;;;6250426;22;20439;-87
2024/02/15 16:23:00;;;;;;;1.10;1.00;;;;;;;;;;6250751;22;20454;-84
2024/02/15 16:25:31;;;;;;;4.03;1.43;;;;;;;;;;6249145;22;20511;-85
2024/02/15 16:28:06;;;;;;;1.00;1.00;;;;;;;;;;6261310;22;20400;-87
2024/02/15 16:30:39;;;;;;;2.53;1.30;;;;;;;;;;6286282;22;20503;-85
2024/02/15 16:33:09;;;;;;;1.43;1.10;;;;;;;;;;6261766;22;20411;-87